This is the latest recevied weather packets stored in our database for station/object K4VEB. If no packets are shown the sender has not sent any weather packets the latest 10 day(s).
| Time | Temp. | Humidity | Pressure | Rain* | Wind** | Luminosity | Snow |
|---|---|---|---|---|---|---|---|
| 1777922882 | 28.89° C | 38% | 1015.3 hPa | 0 mm | - | 160 W/m² | - |
| 1777922580 | 28.89° C | 39% | 1014.9 hPa | 0 mm | - | 806 W/m² | - |
| 1777922278 | 29.44° C | 36% | 1015.3 hPa | 0 mm | - | 841 W/m² | - |
| 1777921975 | 28.89° C | 37% | 1015.3 hPa | 0 mm | - | 844 W/m² | - |
| 1777921670 | 27.78° C | 39% | 1015.5 hPa | 0 mm | - | 855 W/m² | - |
| 1777921367 | 27.22° C | 41% | 1015.6 hPa | 0 mm | - | 856 W/m² | - |
| 1777921064 | 27.78° C | 40% | 1015.4 hPa | 0 mm | - | 173 W/m² | - |
| 1777920761 | 27.22° C | 42% | 1015.6 hPa | 0 mm | - | 536 W/m² | - |
| 1777920457 | 27.22° C | 43% | 1015.7 hPa | 0 mm | - | 305 W/m² | - |
| 1777920153 | 27.22° C | 42% | 1016 hPa | 0 mm | - | 258 W/m² | - |
| 1777919849 | 27.22° C | 40% | 1015.8 hPa | 0 mm | - | 703 W/m² | - |
| 1777919546 | 26.67° C | 41% | 1016 hPa | 0 mm | - | 907 W/m² | - |
| 1777919244 | 27.22° C | 40% | 1016.1 hPa | 0 mm | - | 798 W/m² | - |
| 1777918941 | 27.22° C | 40% | 1016.3 hPa | 0 mm | - | 243 W/m² | - |
| 1777918638 | 28.33° C | 38% | 1016.2 hPa | 0 mm | - | 534 W/m² | - |
| 1777918336 | 28.33° C | 41% | 1016.2 hPa | 0 mm | - | 904 W/m² | - |
| 1777918035 | 27.78° C | 38% | 1016.2 hPa | 0 mm | - | 868 W/m² | - |
| 1777917733 | 27.78° C | 38% | 1016.3 hPa | 0 mm | - | 863 W/m² | - |
| 1777917430 | 28.33° C | 36% | 1016.2 hPa | 0 mm | - | 865 W/m² | - |
| 1777917126 | 27.78° C | 37% | 1016.3 hPa | 0 mm | - | 859 W/m² | - |
| 1777916824 | 26.67° C | 40% | 1016.5 hPa | 0 mm | - | 859 W/m² | - |
| 1777916522 | 27.22° C | 38% | 1016.5 hPa | 0 mm | - | 862 W/m² | - |
| 1777916218 | 26.67° C | 36% | 1016.6 hPa | 0 mm | - | 865 W/m² | - |
| 1777915916 | 27.22° C | 37% | 1016.6 hPa | 0 mm | - | 866 W/m² | - |
| 1777915612 | 27.22° C | 35% | 1016.6 hPa | 0 mm | - | 867 W/m² | - |
* Rain latest hour (hover to see other rain measurements)
** Current wind speed in m/s (hover to see current wind gust speed)